sensor_id;sensor_type;location;lat;lon;timestamp;P1;durP1;ratioP1;P2;durP2;ratioP2
73900;SDS011;62235;52.160;7.526;2022-11-20T00:00:28;23.23;;;9.60;;
73900;SDS011;62235;52.160;7.526;2022-11-20T00:02:53;21.70;;;9.90;;
73900;SDS011;62235;52.160;7.526;2022-11-20T00:05:19;22.47;;;10.17;;
73900;SDS011;62235;52.160;7.526;2022-11-20T00:07:45;24.38;;;11.38;;
73900;SDS011;62235;52.160;7.526;2022-11-20T00:10:11;25.33;;;12.40;;
73900;SDS011;62235;52.160;7.526;2022-11-20T00:12:36;34.20;;;14.68;;
73900;SDS011;62235;52.160;7.526;2022-11-20T00:15:02;35.07;;;15.60;;
73900;SDS011;62235;52.160;7.526;2022-11-20T00:17:27;35.78;;;15.25;;
73900;SDS011;62235;52.160;7.526;2022-11-20T00:19:53;28.20;;;14.30;;
73900;SDS011;62235;52.160;7.526;2022-11-20T00:22:18;28.50;;;13.47;;
73900;SDS011;62235;52.160;7.526;2022-11-20T00:24:43;25.90;;;12.50;;
73900;SDS011;62235;52.160;7.526;2022-11-20T00:27:08;25.10;;;11.17;;
73900;SDS011;62235;52.160;7.526;2022-11-20T00:29:34;24.93;;;11.57;;
73900;SDS011;62235;52.160;7.526;2022-11-20T00:31:59;31.97;;;13.73;;
73900;SDS011;62235;52.160;7.526;2022-11-20T00:34:24;29.70;;;13.23;;
73900;SDS011;62235;52.160;7.526;2022-11-20T00:36:50;22.47;;;12.37;;
73900;SDS011;62235;52.160;7.526;2022-11-20T00:39:15;28.97;;;13.13;;
73900;SDS011;62235;52.160;7.526;2022-11-20T00:41:40;25.97;;;11.37;;
73900;SDS011;62235;52.160;7.526;2022-11-20T00:44:06;22.00;;;10.20;;
73900;SDS011;62235;52.160;7.526;2022-11-20T00:46:31;23.77;;;10.93;;
73900;SDS011;62235;52.160;7.526;2022-11-20T00:48:56;29.33;;;11.90;;
73900;SDS011;62235;52.160;7.526;2022-11-20T00:51:22;28.20;;;13.15;;
73900;SDS011;62235;52.160;7.526;2022-11-20T00:53:49;28.55;;;12.55;;
73900;SDS011;62235;52.160;7.526;2022-11-20T00:56:16;32.03;;;13.10;;
73900;SDS011;62235;52.160;7.526;2022-11-20T00:58:44;31.98;;;12.98;;
73900;SDS011;62235;52.160;7.526;2022-11-20T01:01:18;26.95;;;13.25;;
73900;SDS011;62235;52.160;7.526;2022-11-20T01:03:48;26.70;;;12.75;;
73900;SDS011;62235;52.160;7.526;2022-11-20T01:09:00;29.38;;;13.82;;
73900;SDS011;62235;52.160;7.526;2022-11-20T01:11:32;32.33;;;14.18;;
73900;SDS011;62235;52.160;7.526;2022-11-20T01:14:00;25.77;;;11.48;;
73900;SDS011;62235;52.160;7.526;2022-11-20T01:16:31;28.02;;;12.38;;
73900;SDS011;62235;52.160;7.526;2022-11-20T01:18:59;26.50;;;12.63;;
73900;SDS011;62235;52.160;7.526;2022-11-20T01:21:26;29.77;;;14.27;;
73900;SDS011;62235;52.160;7.526;2022-11-20T01:23:53;27.73;;;11.77;;
73900;SDS011;62235;52.160;7.526;2022-11-20T01:26:20;25.27;;;12.07;;
73900;SDS011;62235;52.160;7.526;2022-11-20T01:28:47;21.27;;;10.57;;
73900;SDS011;62235;52.160;7.526;2022-11-20T01:31:17;24.48;;;11.20;;
73900;SDS011;62235;52.160;7.526;2022-11-20T01:33:44;22.45;;;11.00;;
73900;SDS011;62235;52.160;7.526;2022-11-20T01:36:10;27.17;;;12.95;;
73900;SDS011;62235;52.160;7.526;2022-11-20T01:38:36;24.75;;;12.80;;
73900;SDS011;62235;52.160;7.526;2022-11-20T01:41:02;26.50;;;12.00;;
73900;SDS011;62235;52.160;7.526;2022-11-20T01:43:27;24.92;;;11.45;;
73900;SDS011;62235;52.160;7.526;2022-11-20T01:46:35;20.83;;;9.60;;
73900;SDS011;62235;52.160;7.526;2022-11-20T01:48:50;20.73;;;10.73;;
73900;SDS011;62235;52.160;7.526;2022-11-20T01:51:29;24.15;;;11.70;;
73900;SDS011;62235;52.160;7.526;2022-11-20T01:53:58;27.08;;;11.57;;
73900;SDS011;62235;52.160;7.526;2022-11-20T01:56:26;27.98;;;12.05;;
73900;SDS011;62235;52.160;7.526;2022-11-20T01:58:54;24.63;;;12.30;;
73900;SDS011;62235;52.160;7.526;2022-11-20T02:01:21;29.88;;;11.38;;
73900;SDS011;62235;52.160;7.526;2022-11-20T02:03:47;25.50;;;10.60;;
73900;SDS011;62235;52.160;7.526;2022-11-20T02:06:15;23.58;;;10.98;;
73900;SDS011;62235;52.160;7.526;2022-11-20T02:08:41;26.73;;;13.02;;
73900;SDS011;62235;52.160;7.526;2022-11-20T02:11:07;30.90;;;13.50;;
73900;SDS011;62235;52.160;7.526;2022-11-20T02:13:33;26.73;;;13.23;;
73900;SDS011;62235;52.160;7.526;2022-11-20T02:16:30;24.10;;;12.27;;
73900;SDS011;62235;52.160;7.526;2022-11-20T02:18:57;27.75;;;13.40;;
73900;SDS011;62235;52.160;7.526;2022-11-20T02:26:43;23.88;;;11.38;;
73900;SDS011;62235;52.160;7.526;2022-11-20T02:29:12;22.38;;;10.23;;
73900;SDS011;62235;52.160;7.526;2022-11-20T02:31:40;20.63;;;9.63;;
73900;SDS011;62235;52.160;7.526;2022-11-20T02:34:06;19.98;;;9.25;;
73900;SDS011;62235;52.160;7.526;2022-11-20T02:36:32;21.60;;;9.67;;
73900;SDS011;62235;52.160;7.526;2022-11-20T02:38:58;19.52;;;9.90;;
73900;SDS011;62235;52.160;7.526;2022-11-20T02:41:31;17.38;;;9.35;;
73900;SDS011;62235;52.160;7.526;2022-11-20T02:44:00;18.23;;;9.20;;
73900;SDS011;62235;52.160;7.526;2022-11-20T02:46:26;20.30;;;8.63;;
73900;SDS011;62235;52.160;7.526;2022-11-20T02:48:51;22.03;;;8.77;;
73900;SDS011;62235;52.160;7.526;2022-11-20T02:51:16;14.80;;;7.13;;
73900;SDS011;62235;52.160;7.526;2022-11-20T02:53:42;13.90;;;6.87;;
73900;SDS011;62235;52.160;7.526;2022-11-20T02:56:07;21.87;;;9.37;;
73900;SDS011;62235;52.160;7.526;2022-11-20T02:58:32;12.83;;;6.80;;
73900;SDS011;62235;52.160;7.526;2022-11-20T03:00:57;14.97;;;6.83;;
73900;SDS011;62235;52.160;7.526;2022-11-20T03:03:23;15.53;;;7.67;;
73900;SDS011;62235;52.160;7.526;2022-11-20T03:05:48;12.37;;;6.30;;
73900;SDS011;62235;52.160;7.526;2022-11-20T03:08:13;16.57;;;8.37;;
73900;SDS011;62235;52.160;7.526;2022-11-20T03:10:39;15.33;;;7.90;;
73900;SDS011;62235;52.160;7.526;2022-11-20T03:13:04;16.67;;;8.43;;
73900;SDS011;62235;52.160;7.526;2022-11-20T03:15:30;18.30;;;7.72;;
73900;SDS011;62235;52.160;7.526;2022-11-20T03:17:55;16.40;;;8.33;;
73900;SDS011;62235;52.160;7.526;2022-11-20T03:20:21;20.80;;;9.63;;
73900;SDS011;62235;52.160;7.526;2022-11-20T03:22:46;18.42;;;9.10;;
73900;SDS011;62235;52.160;7.526;2022-11-20T03:25:12;19.90;;;10.10;;
73900;SDS011;62235;52.160;7.526;2022-11-20T03:27:37;19.67;;;8.70;;
73900;SDS011;62235;52.160;7.526;2022-11-20T03:30:02;17.27;;;8.37;;
73900;SDS011;62235;52.160;7.526;2022-11-20T03:32:28;17.35;;;8.48;;
73900;SDS011;62235;52.160;7.526;2022-11-20T03:34:54;13.73;;;7.23;;
73900;SDS011;62235;52.160;7.526;2022-11-20T03:37:19;19.43;;;9.73;;
73900;SDS011;62235;52.160;7.526;2022-11-20T03:39:44;19.83;;;9.67;;
73900;SDS011;62235;52.160;7.526;2022-11-20T03:42:10;21.10;;;9.37;;
73900;SDS011;62235;52.160;7.526;2022-11-20T03:44:53;19.17;;;9.23;;
73900;SDS011;62235;52.160;7.526;2022-11-20T03:47:19;18.05;;;8.98;;
73900;SDS011;62235;52.160;7.526;2022-11-20T03:49:44;18.93;;;9.63;;
73900;SDS011;62235;52.160;7.526;2022-11-20T03:52:09;21.67;;;9.20;;
73900;SDS011;62235;52.160;7.526;2022-11-20T03:54:35;22.00;;;9.17;;
73900;SDS011;62235;52.160;7.526;2022-11-20T03:57:00;18.63;;;8.33;;
73900;SDS011;62235;52.160;7.526;2022-11-20T03:59:25;22.03;;;9.70;;
73900;SDS011;62235;52.160;7.526;2022-11-20T04:01:51;20.80;;;9.87;;
73900;SDS011;62235;52.160;7.526;2022-11-20T04:04:16;19.83;;;8.90;;
73900;SDS011;62235;52.160;7.526;2022-11-20T04:06:41;19.10;;;9.77;;
73900;SDS011;62235;52.160;7.526;2022-11-20T04:09:06;23.23;;;10.30;;
73900;SDS011;62235;52.160;7.526;2022-11-20T04:11:33;22.63;;;10.50;;
73900;SDS011;62235;52.160;7.526;2022-11-20T04:14:00;20.33;;;8.98;;
73900;SDS011;62235;52.160;7.526;2022-11-20T04:16:29;22.05;;;11.07;;
73900;SDS011;62235;52.160;7.526;2022-11-20T04:18:56;23.65;;;11.07;;
73900;SDS011;62235;52.160;7.526;2022-11-20T04:21:22;22.90;;;10.63;;
73900;SDS011;62235;52.160;7.526;2022-11-20T04:23:48;21.23;;;9.88;;
73900;SDS011;62235;52.160;7.526;2022-11-20T04:26:13;19.02;;;9.52;;
73900;SDS011;62235;52.160;7.526;2022-11-20T04:28:39;22.30;;;9.80;;
73900;SDS011;62235;52.160;7.526;2022-11-20T04:31:05;21.55;;;10.68;;
73900;SDS011;62235;52.160;7.526;2022-11-20T04:33:35;16.20;;;7.65;;
73900;SDS011;62235;52.160;7.526;2022-11-20T04:36:18;18.17;;;8.98;;
73900;SDS011;62235;52.160;7.526;2022-11-20T04:38:45;19.08;;;8.82;;
73900;SDS011;62235;52.160;7.526;2022-11-20T04:41:15;19.42;;;9.38;;
73900;SDS011;62235;52.160;7.526;2022-11-20T04:43:41;28.75;;;10.95;;
73900;SDS011;62235;52.160;7.526;2022-11-20T04:46:07;17.83;;;9.38;;
73900;SDS011;62235;52.160;7.526;2022-11-20T04:48:32;19.43;;;9.67;;
73900;SDS011;62235;52.160;7.526;2022-11-20T04:50:57;22.17;;;8.13;;
73900;SDS011;62235;52.160;7.526;2022-11-20T04:53:23;20.73;;;8.17;;
73900;SDS011;62235;52.160;7.526;2022-11-20T04:55:48;19.40;;;8.90;;
73900;SDS011;62235;52.160;7.526;2022-11-20T04:58:14;18.60;;;9.20;;
73900;SDS011;62235;52.160;7.526;2022-11-20T05:00:39;23.10;;;10.75;;
73900;SDS011;62235;52.160;7.526;2022-11-20T05:03:05;18.15;;;9.40;;
73900;SDS011;62235;52.160;7.526;2022-11-20T05:05:30;21.42;;;8.93;;
73900;SDS011;62235;52.160;7.526;2022-11-20T05:07:56;18.23;;;8.47;;
73900;SDS011;62235;52.160;7.526;2022-11-20T05:10:22;22.40;;;10.98;;
73900;SDS011;62235;52.160;7.526;2022-11-20T05:12:48;19.90;;;10.07;;
73900;SDS011;62235;52.160;7.526;2022-11-20T05:15:13;21.60;;;9.83;;
73900;SDS011;62235;52.160;7.526;2022-11-20T05:17:39;20.87;;;9.77;;
73900;SDS011;62235;52.160;7.526;2022-11-20T05:20:04;22.97;;;9.90;;
73900;SDS011;62235;52.160;7.526;2022-11-20T05:22:30;20.33;;;9.32;;
73900;SDS011;62235;52.160;7.526;2022-11-20T05:24:55;21.67;;;10.43;;
73900;SDS011;62235;52.160;7.526;2022-11-20T05:27:20;22.73;;;9.67;;
73900;SDS011;62235;52.160;7.526;2022-11-20T05:29:46;20.30;;;10.03;;
73900;SDS011;62235;52.160;7.526;2022-11-20T05:32:11;21.35;;;10.52;;
73900;SDS011;62235;52.160;7.526;2022-11-20T05:34:36;16.77;;;8.33;;
73900;SDS011;62235;52.160;7.526;2022-11-20T05:37:02;20.90;;;9.47;;
73900;SDS011;62235;52.160;7.526;2022-11-20T05:39:27;18.20;;;8.77;;
73900;SDS011;62235;52.160;7.526;2022-11-20T05:41:53;22.98;;;8.95;;
73900;SDS011;62235;52.160;7.526;2022-11-20T05:44:38;19.65;;;9.13;;
73900;SDS011;62235;52.160;7.526;2022-11-20T05:47:03;18.88;;;9.38;;
73900;SDS011;62235;52.160;7.526;2022-11-20T05:49:29;20.13;;;9.50;;
73900;SDS011;62235;52.160;7.526;2022-11-20T05:51:54;19.30;;;8.90;;
73900;SDS011;62235;52.160;7.526;2022-11-20T05:54:19;18.53;;;9.27;;
73900;SDS011;62235;52.160;7.526;2022-11-20T05:56:45;18.93;;;8.30;;
73900;SDS011;62235;52.160;7.526;2022-11-20T05:59:10;18.93;;;8.90;;
73900;SDS011;62235;52.160;7.526;2022-11-20T06:01:35;18.47;;;8.23;;
73900;SDS011;62235;52.160;7.526;2022-11-20T06:04:01;19.50;;;8.97;;
73900;SDS011;62235;52.160;7.526;2022-11-20T06:06:26;20.95;;;7.63;;
73900;SDS011;62235;52.160;7.526;2022-11-20T06:08:51;15.40;;;7.23;;
73900;SDS011;62235;52.160;7.526;2022-11-20T06:11:17;18.63;;;8.68;;
73900;SDS011;62235;52.160;7.526;2022-11-20T06:13:42;15.20;;;7.95;;
73900;SDS011;62235;52.160;7.526;2022-11-20T06:16:09;19.23;;;8.13;;
73900;SDS011;62235;52.160;7.526;2022-11-20T06:18:35;19.15;;;9.45;;
73900;SDS011;62235;52.160;7.526;2022-11-20T06:21:01;17.57;;;9.10;;
73900;SDS011;62235;52.160;7.526;2022-11-20T06:23:27;20.27;;;8.80;;
73900;SDS011;62235;52.160;7.526;2022-11-20T06:25:53;18.67;;;8.15;;
73900;SDS011;62235;52.160;7.526;2022-11-20T06:28:19;14.13;;;6.63;;
73900;SDS011;62235;52.160;7.526;2022-11-20T06:30:44;15.13;;;7.27;;
73900;SDS011;62235;52.160;7.526;2022-11-20T06:33:10;18.63;;;8.77;;
73900;SDS011;62235;52.160;7.526;2022-11-20T06:35:36;19.77;;;9.77;;
73900;SDS011;62235;52.160;7.526;2022-11-20T06:38:01;19.60;;;9.07;;
73900;SDS011;62235;52.160;7.526;2022-11-20T06:40:26;21.93;;;9.53;;
73900;SDS011;62235;52.160;7.526;2022-11-20T06:42:53;24.13;;;8.53;;
73900;SDS011;62235;52.160;7.526;2022-11-20T06:45:19;22.48;;;10.38;;
73900;SDS011;62235;52.160;7.526;2022-11-20T06:47:44;21.07;;;8.53;;
73900;SDS011;62235;52.160;7.526;2022-11-20T06:50:10;15.47;;;6.93;;
73900;SDS011;62235;52.160;7.526;2022-11-20T06:52:35;14.60;;;7.30;;
73900;SDS011;62235;52.160;7.526;2022-11-20T06:55:00;15.33;;;7.80;;
73900;SDS011;62235;52.160;7.526;2022-11-20T06:57:25;15.67;;;7.20;;
73900;SDS011;62235;52.160;7.526;2022-11-20T06:59:51;17.50;;;9.03;;
73900;SDS011;62235;52.160;7.526;2022-11-20T07:02:16;17.03;;;7.73;;
73900;SDS011;62235;52.160;7.526;2022-11-20T07:04:41;29.07;;;12.23;;
73900;SDS011;62235;52.160;7.526;2022-11-20T07:07:07;31.23;;;12.23;;
73900;SDS011;62235;52.160;7.526;2022-11-20T07:09:33;33.72;;;11.77;;
73900;SDS011;62235;52.160;7.526;2022-11-20T07:11:58;28.37;;;12.00;;
73900;SDS011;62235;52.160;7.526;2022-11-20T07:14:24;19.23;;;10.03;;
73900;SDS011;62235;52.160;7.526;2022-11-20T07:16:49;16.92;;;7.97;;
73900;SDS011;62235;52.160;7.526;2022-11-20T07:19:17;16.38;;;8.70;;
73900;SDS011;62235;52.160;7.526;2022-11-20T07:21:43;14.53;;;7.87;;
73900;SDS011;62235;52.160;7.526;2022-11-20T07:24:08;20.43;;;9.00;;
73900;SDS011;62235;52.160;7.526;2022-11-20T07:26:33;20.10;;;8.57;;
73900;SDS011;62235;52.160;7.526;2022-11-20T07:28:59;18.27;;;9.27;;
73900;SDS011;62235;52.160;7.526;2022-11-20T07:31:24;20.00;;;9.70;;
73900;SDS011;62235;52.160;7.526;2022-11-20T07:33:49;16.00;;;8.13;;
73900;SDS011;62235;52.160;7.526;2022-11-20T07:36:15;23.90;;;11.70;;
73900;SDS011;62235;52.160;7.526;2022-11-20T07:38:40;26.27;;;13.45;;
73900;SDS011;62235;52.160;7.526;2022-11-20T07:41:05;28.37;;;12.10;;
73900;SDS011;62235;52.160;7.526;2022-11-20T07:43:30;26.23;;;13.40;;
73900;SDS011;62235;52.160;7.526;2022-11-20T07:45:56;24.08;;;12.65;;
73900;SDS011;62235;52.160;7.526;2022-11-20T07:48:23;24.60;;;13.52;;
73900;SDS011;62235;52.160;7.526;2022-11-20T07:50:48;26.23;;;12.80;;
73900;SDS011;62235;52.160;7.526;2022-11-20T07:53:14;21.03;;;9.53;;
73900;SDS011;62235;52.160;7.526;2022-11-20T07:55:45;25.88;;;13.60;;
73900;SDS011;62235;52.160;7.526;2022-11-20T07:58:11;20.30;;;10.40;;
73900;SDS011;62235;52.160;7.526;2022-11-20T08:00:36;25.77;;;13.27;;
73900;SDS011;62235;52.160;7.526;2022-11-20T08:03:04;24.60;;;12.30;;
73900;SDS011;62235;52.160;7.526;2022-11-20T08:05:30;27.85;;;11.88;;
73900;SDS011;62235;52.160;7.526;2022-11-20T08:07:55;23.58;;;11.23;;
73900;SDS011;62235;52.160;7.526;2022-11-20T08:10:20;22.73;;;10.73;;
73900;SDS011;62235;52.160;7.526;2022-11-20T08:12:46;23.30;;;10.77;;
73900;SDS011;62235;52.160;7.526;2022-11-20T08:15:35;26.42;;;12.80;;
73900;SDS011;62235;52.160;7.526;2022-11-20T08:18:01;24.90;;;12.05;;
73900;SDS011;62235;52.160;7.526;2022-11-20T08:20:28;27.00;;;12.85;;
73900;SDS011;62235;52.160;7.526;2022-11-20T08:22:57;27.73;;;12.75;;
73900;SDS011;62235;52.160;7.526;2022-11-20T08:25:23;25.75;;;11.98;;
73900;SDS011;62235;52.160;7.526;2022-11-20T08:27:48;28.10;;;13.40;;
73900;SDS011;62235;52.160;7.526;2022-11-20T08:30:13;30.00;;;12.77;;
73900;SDS011;62235;52.160;7.526;2022-11-20T08:32:39;29.10;;;13.88;;
73900;SDS011;62235;52.160;7.526;2022-11-20T08:35:04;26.53;;;11.20;;
73900;SDS011;62235;52.160;7.526;2022-11-20T08:37:30;24.92;;;12.07;;
73900;SDS011;62235;52.160;7.526;2022-11-20T08:39:55;23.08;;;9.90;;
73900;SDS011;62235;52.160;7.526;2022-11-20T08:42:21;31.80;;;11.38;;
73900;SDS011;62235;52.160;7.526;2022-11-20T08:44:47;38.03;;;10.52;;
73900;SDS011;62235;52.160;7.526;2022-11-20T08:47:12;25.67;;;9.77;;
73900;SDS011;62235;52.160;7.526;2022-11-20T08:49:37;49.10;;;11.23;;
73900;SDS011;62235;52.160;7.526;2022-11-20T08:52:03;15.93;;;6.47;;
73900;SDS011;62235;52.160;7.526;2022-11-20T08:54:28;30.90;;;11.07;;
73900;SDS011;62235;52.160;7.526;2022-11-20T08:56:53;49.10;;;13.43;;
73900;SDS011;62235;52.160;7.526;2022-11-20T08:59:19;61.65;;;14.20;;
73900;SDS011;62235;52.160;7.526;2022-11-20T09:01:44;29.53;;;9.90;;
73900;SDS011;62235;52.160;7.526;2022-11-20T09:04:09;42.83;;;11.13;;
73900;SDS011;62235;52.160;7.526;2022-11-20T09:06:36;62.88;;;13.00;;
73900;SDS011;62235;52.160;7.526;2022-11-20T09:09:01;49.43;;;10.53;;
73900;SDS011;62235;52.160;7.526;2022-11-20T09:11:27;54.45;;;16.27;;
73900;SDS011;62235;52.160;7.526;2022-11-20T09:13:52;51.65;;;12.38;;
73900;SDS011;62235;52.160;7.526;2022-11-20T09:16:18;42.70;;;11.33;;
73900;SDS011;62235;52.160;7.526;2022-11-20T09:18:43;72.23;;;13.53;;
73900;SDS011;62235;52.160;7.526;2022-11-20T09:21:09;55.70;;;11.73;;
73900;SDS011;62235;52.160;7.526;2022-11-20T09:23:35;40.50;;;12.48;;
73900;SDS011;62235;52.160;7.526;2022-11-20T09:26:02;58.53;;;13.75;;
73900;SDS011;62235;52.160;7.526;2022-11-20T09:28:31;78.30;;;17.02;;
73900;SDS011;62235;52.160;7.526;2022-11-20T09:30:57;65.53;;;15.55;;
73900;SDS011;62235;52.160;7.526;2022-11-20T09:33:22;59.50;;;14.73;;
73900;SDS011;62235;52.160;7.526;2022-11-20T09:35:48;60.40;;;14.30;;
73900;SDS011;62235;52.160;7.526;2022-11-20T09:38:13;69.47;;;16.27;;
73900;SDS011;62235;52.160;7.526;2022-11-20T09:40:48;53.30;;;15.20;;
73900;SDS011;62235;52.160;7.526;2022-11-20T09:54:18;63.67;;;17.02;;
73900;SDS011;62235;52.160;7.526;2022-11-20T09:56:55;78.40;;;18.00;;
73900;SDS011;62235;52.160;7.526;2022-11-20T09:59:33;71.53;;;21.23;;
73900;SDS011;62235;52.160;7.526;2022-11-20T10:02:08;68.47;;;16.67;;
73900;SDS011;62235;52.160;7.526;2022-11-20T10:04:43;78.90;;;21.92;;
73900;SDS011;62235;52.160;7.526;2022-11-20T10:07:22;65.80;;;19.13;;
73900;SDS011;62235;52.160;7.526;2022-11-20T10:09:50;61.35;;;18.73;;
73900;SDS011;62235;52.160;7.526;2022-11-20T10:15:19;51.30;;;17.55;;
73900;SDS011;62235;52.160;7.526;2022-11-20T10:23:21;46.47;;;14.30;;
73900;SDS011;62235;52.160;7.526;2022-11-20T10:31:36;55.30;;;19.08;;
73900;SDS011;62235;52.160;7.526;2022-11-20T10:34:06;61.88;;;23.90;;
73900;SDS011;62235;52.160;7.526;2022-11-20T10:36:56;55.58;;;21.92;;
73900;SDS011;62235;52.160;7.526;2022-11-20T10:40:27;41.22;;;15.55;;
73900;SDS011;62235;52.160;7.526;2022-11-20T10:42:34;57.55;;;20.75;;
73900;SDS011;62235;52.160;7.526;2022-11-20T10:48:11;47.30;;;18.67;;
73900;SDS011;62235;52.160;7.526;2022-11-20T10:50:53;33.63;;;12.80;;
73900;SDS011;62235;52.160;7.526;2022-11-20T10:53:28;43.47;;;16.70;;
73900;SDS011;62235;52.160;7.526;2022-11-20T10:56:04;40.55;;;14.48;;
73900;SDS011;62235;52.160;7.526;2022-11-20T11:01:18;37.63;;;12.68;;
73900;SDS011;62235;52.160;7.526;2022-11-20T11:03:48;35.10;;;13.32;;
73900;SDS011;62235;52.160;7.526;2022-11-20T11:09:02;42.28;;;14.57;;
73900;SDS011;62235;52.160;7.526;2022-11-20T11:11:32;47.08;;;18.20;;
73900;SDS011;62235;52.160;7.526;2022-11-20T11:14:08;47.95;;;16.75;;
73900;SDS011;62235;52.160;7.526;2022-11-20T11:16:34;45.08;;;15.93;;
73900;SDS011;62235;52.160;7.526;2022-11-20T11:19:06;45.85;;;16.73;;
73900;SDS011;62235;52.160;7.526;2022-11-20T11:21:37;45.03;;;17.65;;
73900;SDS011;62235;52.160;7.526;2022-11-20T11:24:14;42.20;;;15.80;;
73900;SDS011;62235;52.160;7.526;2022-11-20T11:26:50;47.88;;;17.05;;
73900;SDS011;62235;52.160;7.526;2022-11-20T11:29:23;45.25;;;17.35;;
73900;SDS011;62235;52.160;7.526;2022-11-20T11:31:51;43.22;;;14.93;;
73900;SDS011;62235;52.160;7.526;2022-11-20T11:34:28;39.28;;;16.08;;
73900;SDS011;62235;52.160;7.526;2022-11-20T11:36:57;36.90;;;13.90;;
73900;SDS011;62235;52.160;7.526;2022-11-20T11:39:22;36.10;;;15.13;;
73900;SDS011;62235;52.160;7.526;2022-11-20T11:41:48;38.72;;;14.98;;
73900;SDS011;62235;52.160;7.526;2022-11-20T11:44:21;42.17;;;16.65;;
73900;SDS011;62235;52.160;7.526;2022-11-20T11:52:38;41.78;;;16.05;;
73900;SDS011;62235;52.160;7.526;2022-11-20T11:55:09;41.13;;;15.70;;
73900;SDS011;62235;52.160;7.526;2022-11-20T12:00:19;36.15;;;15.35;;
73900;SDS011;62235;52.160;7.526;2022-11-20T12:15:59;31.23;;;13.10;;
73900;SDS011;62235;52.160;7.526;2022-11-20T12:18:25;34.80;;;14.50;;
73900;SDS011;62235;52.160;7.526;2022-11-20T12:23:54;34.20;;;17.70;;
73900;SDS011;62235;52.160;7.526;2022-11-20T12:26:34;31.95;;;16.02;;
73900;SDS011;62235;52.160;7.526;2022-11-20T12:29:16;33.78;;;17.95;;
73900;SDS011;62235;52.160;7.526;2022-11-20T12:38:01;29.80;;;15.48;;
73900;SDS011;62235;52.160;7.526;2022-11-20T12:43:15;33.15;;;15.15;;
73900;SDS011;62235;52.160;7.526;2022-11-20T12:46:18;14.05;;;7.93;;
73900;SDS011;62235;52.160;7.526;2022-11-20T12:49:03;11.95;;;5.85;;
73900;SDS011;62235;52.160;7.526;2022-11-20T12:51:47;10.13;;;5.38;;
73900;SDS011;62235;52.160;7.526;2022-11-20T13:02:22;10.65;;;5.22;;
73900;SDS011;62235;52.160;7.526;2022-11-20T13:04:52;13.70;;;5.85;;
73900;SDS011;62235;52.160;7.526;2022-11-20T13:07:31;9.63;;;5.75;;
73900;SDS011;62235;52.160;7.526;2022-11-20T13:09:58;14.07;;;5.90;;
73900;SDS011;62235;52.160;7.526;2022-11-20T13:12:25;13.13;;;6.97;;
73900;SDS011;62235;52.160;7.526;2022-11-20T13:15:08;10.57;;;6.65;;
73900;SDS011;62235;52.160;7.526;2022-11-20T13:17:46;12.80;;;5.85;;
73900;SDS011;62235;52.160;7.526;2022-11-20T13:20:17;11.93;;;7.07;;
73900;SDS011;62235;52.160;7.526;2022-11-20T13:22:44;12.73;;;7.18;;
73900;SDS011;62235;52.160;7.526;2022-11-20T13:25:24;15.73;;;6.63;;
73900;SDS011;62235;52.160;7.526;2022-11-20T13:27:50;15.82;;;8.27;;
73900;SDS011;62235;52.160;7.526;2022-11-20T13:30:17;19.48;;;8.68;;
73900;SDS011;62235;52.160;7.526;2022-11-20T13:36:03;16.25;;;9.45;;
73900;SDS011;62235;52.160;7.526;2022-11-20T13:38:40;16.83;;;8.50;;
73900;SDS011;62235;52.160;7.526;2022-11-20T13:41:08;17.50;;;9.98;;
73900;SDS011;62235;52.160;7.526;2022-11-20T13:43:52;16.23;;;9.27;;
73900;SDS011;62235;52.160;7.526;2022-11-20T13:46:22;17.63;;;8.40;;
73900;SDS011;62235;52.160;7.526;2022-11-20T13:48:49;23.33;;;10.13;;
73900;SDS011;62235;52.160;7.526;2022-11-20T13:59:40;31.77;;;16.60;;
73900;SDS011;62235;52.160;7.526;2022-11-20T14:02:20;22.00;;;11.45;;
73900;SDS011;62235;52.160;7.526;2022-11-20T14:04:50;18.77;;;9.70;;
73900;SDS011;62235;52.160;7.526;2022-11-20T14:07:17;21.52;;;10.73;;
73900;SDS011;62235;52.160;7.526;2022-11-20T14:09:50;18.88;;;10.57;;
73900;SDS011;62235;52.160;7.526;2022-11-20T14:12:18;21.55;;;11.40;;
73900;SDS011;62235;52.160;7.526;2022-11-20T14:14:48;20.88;;;10.90;;
73900;SDS011;62235;52.160;7.526;2022-11-20T14:17:19;18.95;;;10.02;;
73900;SDS011;62235;52.160;7.526;2022-11-20T14:19:53;21.58;;;11.55;;
73900;SDS011;62235;52.160;7.526;2022-11-20T14:22:20;24.27;;;11.85;;
73900;SDS011;62235;52.160;7.526;2022-11-20T14:24:47;29.88;;;12.60;;
73900;SDS011;62235;52.160;7.526;2022-11-20T14:27:32;30.08;;;13.73;;
73900;SDS011;62235;52.160;7.526;2022-11-20T14:32:25;37.35;;;14.88;;
73900;SDS011;62235;52.160;7.526;2022-11-20T14:34:53;32.55;;;14.70;;
73900;SDS011;62235;52.160;7.526;2022-11-20T14:37:23;40.35;;;17.02;;
73900;SDS011;62235;52.160;7.526;2022-11-20T14:39:50;36.22;;;15.88;;
73900;SDS011;62235;52.160;7.526;2022-11-20T14:42:19;39.50;;;16.77;;
73900;SDS011;62235;52.160;7.526;2022-11-20T14:44:48;36.45;;;16.67;;
73900;SDS011;62235;52.160;7.526;2022-11-20T14:47:16;36.28;;;15.75;;
73900;SDS011;62235;52.160;7.526;2022-11-20T14:49:43;39.67;;;16.42;;
73900;SDS011;62235;52.160;7.526;2022-11-20T14:52:13;41.65;;;17.80;;
73900;SDS011;62235;52.160;7.526;2022-11-20T14:54:58;40.08;;;17.38;;
73900;SDS011;62235;52.160;7.526;2022-11-20T15:02:41;31.10;;;15.50;;
73900;SDS011;62235;52.160;7.526;2022-11-20T15:05:07;36.22;;;16.80;;
73900;SDS011;62235;52.160;7.526;2022-11-20T15:07:34;36.17;;;17.38;;
73900;SDS011;62235;52.160;7.526;2022-11-20T15:12:26;36.10;;;15.77;;
73900;SDS011;62235;52.160;7.526;2022-11-20T15:14:51;40.17;;;17.73;;
73900;SDS011;62235;52.160;7.526;2022-11-20T15:17:16;35.97;;;16.40;;
73900;SDS011;62235;52.160;7.526;2022-11-20T15:19:42;32.90;;;15.70;;
73900;SDS011;62235;52.160;7.526;2022-11-20T15:22:09;39.40;;;16.87;;
73900;SDS011;62235;52.160;7.526;2022-11-20T15:24:38;41.67;;;18.30;;
73900;SDS011;62235;52.160;7.526;2022-11-20T15:27:03;36.53;;;17.33;;
73900;SDS011;62235;52.160;7.526;2022-11-20T15:29:28;35.83;;;16.33;;
73900;SDS011;62235;52.160;7.526;2022-11-20T15:31:54;37.60;;;17.17;;
73900;SDS011;62235;52.160;7.526;2022-11-20T15:34:19;35.38;;;17.58;;
73900;SDS011;62235;52.160;7.526;2022-11-20T15:36:45;41.30;;;19.60;;
73900;SDS011;62235;52.160;7.526;2022-11-20T15:39:10;33.95;;;15.40;;
73900;SDS011;62235;52.160;7.526;2022-11-20T15:41:36;38.40;;;17.77;;
73900;SDS011;62235;52.160;7.526;2022-11-20T15:44:03;32.75;;;15.00;;
73900;SDS011;62235;52.160;7.526;2022-11-20T15:46:30;35.50;;;16.45;;
73900;SDS011;62235;52.160;7.526;2022-11-20T15:49:02;30.38;;;14.88;;
73900;SDS011;62235;52.160;7.526;2022-11-20T15:51:28;32.97;;;15.80;;
73900;SDS011;62235;52.160;7.526;2022-11-20T15:54:12;32.03;;;14.25;;
73900;SDS011;62235;52.160;7.526;2022-11-20T15:56:39;27.58;;;12.88;;
73900;SDS011;62235;52.160;7.526;2022-11-20T15:59:04;31.70;;;14.77;;
73900;SDS011;62235;52.160;7.526;2022-11-20T16:01:29;34.15;;;15.63;;
73900;SDS011;62235;52.160;7.526;2022-11-20T16:03:55;32.60;;;14.73;;
73900;SDS011;62235;52.160;7.526;2022-11-20T16:06:20;33.77;;;14.47;;
73900;SDS011;62235;52.160;7.526;2022-11-20T16:08:46;29.77;;;14.43;;
73900;SDS011;62235;52.160;7.526;2022-11-20T16:11:12;30.33;;;13.90;;
73900;SDS011;62235;52.160;7.526;2022-11-20T16:13:38;30.85;;;13.48;;
73900;SDS011;62235;52.160;7.526;2022-11-20T16:18:48;25.65;;;12.93;;